sensor_id;sensor_type;location;lat;lon;timestamp;temperature;humidity
6738;DHT22;3406;49.902;8.596;2023-06-24T00:00:38;19.30;59.70
6738;DHT22;3406;49.902;8.596;2023-06-24T00:03:05;19.20;59.70
6738;DHT22;3406;49.902;8.596;2023-06-24T00:05:33;19.20;59.80
6738;DHT22;3406;49.902;8.596;2023-06-24T00:08:01;19.20;60.00
6738;DHT22;3406;49.902;8.596;2023-06-24T00:10:28;19.10;60.10
6738;DHT22;3406;49.902;8.596;2023-06-24T00:12:55;19.00;60.30
6738;DHT22;3406;49.902;8.596;2023-06-24T00:15:22;19.00;60.50
6738;DHT22;3406;49.902;8.596;2023-06-24T00:17:48;18.90;60.60
6738;DHT22;3406;49.902;8.596;2023-06-24T00:20:15;18.90;61.00
6738;DHT22;3406;49.902;8.596;2023-06-24T00:22:43;18.80;61.10
6738;DHT22;3406;49.902;8.596;2023-06-24T00:25:15;18.80;61.30
6738;DHT22;3406;49.902;8.596;2023-06-24T00:27:43;18.70;61.40
6738;DHT22;3406;49.902;8.596;2023-06-24T00:30:10;18.70;61.60
6738;DHT22;3406;49.902;8.596;2023-06-24T00:32:37;18.70;61.70
6738;DHT22;3406;49.902;8.596;2023-06-24T00:35:05;18.70;61.70
6738;DHT22;3406;49.902;8.596;2023-06-24T00:37:31;18.60;61.80
6738;DHT22;3406;49.902;8.596;2023-06-24T00:39:58;18.60;61.90
6738;DHT22;3406;49.902;8.596;2023-06-24T00:42:26;18.50;61.80
6738;DHT22;3406;49.902;8.596;2023-06-24T00:44:53;18.50;62.00
6738;DHT22;3406;49.902;8.596;2023-06-24T00:47:20;18.50;62.10
6738;DHT22;3406;49.902;8.596;2023-06-24T00:49:47;18.50;62.20
6738;DHT22;3406;49.902;8.596;2023-06-24T00:52:14;18.50;62.30
6738;DHT22;3406;49.902;8.596;2023-06-24T00:54:41;18.40;62.30
6738;DHT22;3406;49.902;8.596;2023-06-24T00:57:08;18.40;62.40
6738;DHT22;3406;49.902;8.596;2023-06-24T00:59:37;18.30;62.50
6738;DHT22;3406;49.902;8.596;2023-06-24T01:02:04;18.30;62.70
6738;DHT22;3406;49.902;8.596;2023-06-24T01:04:32;18.30;62.90
6738;DHT22;3406;49.902;8.596;2023-06-24T01:06:59;18.20;63.00
6738;DHT22;3406;49.902;8.596;2023-06-24T01:09:27;18.10;63.10
6738;DHT22;3406;49.902;8.596;2023-06-24T01:11:54;18.10;63.20
6738;DHT22;3406;49.902;8.596;2023-06-24T01:14:20;18.00;63.30
6738;DHT22;3406;49.902;8.596;2023-06-24T01:16:53;18.00;63.50
6738;DHT22;3406;49.902;8.596;2023-06-24T01:19:37;18.00;63.70
6738;DHT22;3406;49.902;8.596;2023-06-24T01:22:19;18.00;63.90
6738;DHT22;3406;49.902;8.596;2023-06-24T01:25:02;17.90;64.00
6738;DHT22;3406;49.902;8.596;2023-06-24T01:28:04;17.90;64.10
6738;DHT22;3406;49.902;8.596;2023-06-24T01:30:47;17.90;64.30
6738;DHT22;3406;49.902;8.596;2023-06-24T01:33:23;17.90;64.50
6738;DHT22;3406;49.902;8.596;2023-06-24T01:35:52;17.80;64.50
6738;DHT22;3406;49.902;8.596;2023-06-24T01:38:23;17.80;64.60
6738;DHT22;3406;49.902;8.596;2023-06-24T01:40:51;17.80;64.80
6738;DHT22;3406;49.902;8.596;2023-06-24T01:43:19;17.80;64.90
6738;DHT22;3406;49.902;8.596;2023-06-24T01:45:50;17.70;65.00
6738;DHT22;3406;49.902;8.596;2023-06-24T01:48:23;17.70;65.10
6738;DHT22;3406;49.902;8.596;2023-06-24T01:50:57;17.70;65.20
6738;DHT22;3406;49.902;8.596;2023-06-24T01:53:25;17.70;65.30
6738;DHT22;3406;49.902;8.596;2023-06-24T01:55:53;17.60;65.30
6738;DHT22;3406;49.902;8.596;2023-06-24T01:58:21;17.60;65.40
6738;DHT22;3406;49.902;8.596;2023-06-24T02:00:49;17.60;65.60
6738;DHT22;3406;49.902;8.596;2023-06-24T02:03:19;17.50;65.60
6738;DHT22;3406;49.902;8.596;2023-06-24T02:05:46;17.50;65.70
6738;DHT22;3406;49.902;8.596;2023-06-24T02:08:14;17.50;65.80
6738;DHT22;3406;49.902;8.596;2023-06-24T02:10:42;17.40;65.90
6738;DHT22;3406;49.902;8.596;2023-06-24T02:13:10;17.40;66.10
6738;DHT22;3406;49.902;8.596;2023-06-24T02:15:38;17.40;66.20
6738;DHT22;3406;49.902;8.596;2023-06-24T02:18:06;17.30;66.20
6738;DHT22;3406;49.902;8.596;2023-06-24T02:20:36;17.30;66.40
6738;DHT22;3406;49.902;8.596;2023-06-24T02:23:04;17.30;66.50
6738;DHT22;3406;49.902;8.596;2023-06-24T02:25:33;17.30;66.60
6738;DHT22;3406;49.902;8.596;2023-06-24T02:31:23;17.20;66.90
6738;DHT22;3406;49.902;8.596;2023-06-24T02:33:50;17.10;67.10
6738;DHT22;3406;49.902;8.596;2023-06-24T02:36:18;17.10;67.20
6738;DHT22;3406;49.902;8.596;2023-06-24T02:38:45;17.10;67.30
6738;DHT22;3406;49.902;8.596;2023-06-24T02:41:11;17.10;67.40
6738;DHT22;3406;49.902;8.596;2023-06-24T02:43:38;17.00;67.40
6738;DHT22;3406;49.902;8.596;2023-06-24T02:46:06;17.00;67.50
6738;DHT22;3406;49.902;8.596;2023-06-24T02:48:35;17.00;67.70
6738;DHT22;3406;49.902;8.596;2023-06-24T02:51:03;17.00;67.90
6738;DHT22;3406;49.902;8.596;2023-06-24T02:53:32;16.90;67.90
6738;DHT22;3406;49.902;8.596;2023-06-24T02:56:00;16.90;68.00
6738;DHT22;3406;49.902;8.596;2023-06-24T02:58:29;16.90;68.10
6738;DHT22;3406;49.902;8.596;2023-06-24T03:00:58;16.90;68.20
6738;DHT22;3406;49.902;8.596;2023-06-24T03:03:26;16.90;68.30
6738;DHT22;3406;49.902;8.596;2023-06-24T03:05:54;16.90;68.40
6738;DHT22;3406;49.902;8.596;2023-06-24T03:08:22;16.90;68.50
6738;DHT22;3406;49.902;8.596;2023-06-24T03:10:51;16.90;68.60
6738;DHT22;3406;49.902;8.596;2023-06-24T03:13:17;16.90;68.60
6738;DHT22;3406;49.902;8.596;2023-06-24T03:15:44;16.90;69.40
6738;DHT22;3406;49.902;8.596;2023-06-24T03:18:10;16.90;68.70
6738;DHT22;3406;49.902;8.596;2023-06-24T03:20:37;16.90;68.70
6738;DHT22;3406;49.902;8.596;2023-06-24T03:23:05;16.90;68.80
6738;DHT22;3406;49.902;8.596;2023-06-24T03:25:32;16.90;68.80
6738;DHT22;3406;49.902;8.596;2023-06-24T03:28:00;16.90;68.90
6738;DHT22;3406;49.902;8.596;2023-06-24T03:30:29;16.90;69.00
6738;DHT22;3406;49.902;8.596;2023-06-24T03:32:56;16.90;69.10
6738;DHT22;3406;49.902;8.596;2023-06-24T03:35:23;16.90;69.30
6738;DHT22;3406;49.902;8.596;2023-06-24T03:37:50;16.90;69.30
6738;DHT22;3406;49.902;8.596;2023-06-24T03:40:17;16.80;69.20
6738;DHT22;3406;49.902;8.596;2023-06-24T03:42:43;16.80;69.30
6738;DHT22;3406;49.902;8.596;2023-06-24T03:45:11;16.80;69.30
6738;DHT22;3406;49.902;8.596;2023-06-24T03:47:38;16.80;69.50
6738;DHT22;3406;49.902;8.596;2023-06-24T03:50:06;16.70;69.50
6738;DHT22;3406;49.902;8.596;2023-06-24T03:52:33;16.70;69.70
6738;DHT22;3406;49.902;8.596;2023-06-24T03:54:59;16.70;69.90
6738;DHT22;3406;49.902;8.596;2023-06-24T03:57:27;16.70;70.00
6738;DHT22;3406;49.902;8.596;2023-06-24T03:59:53;16.70;70.00
6738;DHT22;3406;49.902;8.596;2023-06-24T04:02:21;16.70;70.00
6738;DHT22;3406;49.902;8.596;2023-06-24T04:04:48;16.70;70.10
6738;DHT22;3406;49.902;8.596;2023-06-24T04:07:16;16.80;70.30
6738;DHT22;3406;49.902;8.596;2023-06-24T04:09:53;16.70;70.20
6738;DHT22;3406;49.902;8.596;2023-06-24T04:12:20;16.80;70.40
6738;DHT22;3406;49.902;8.596;2023-06-24T04:14:46;16.80;70.40
6738;DHT22;3406;49.902;8.596;2023-06-24T04:17:13;16.80;70.40
6738;DHT22;3406;49.902;8.596;2023-06-24T04:19:41;16.90;70.50
6738;DHT22;3406;49.902;8.596;2023-06-24T04:22:08;16.90;70.50
6738;DHT22;3406;49.902;8.596;2023-06-24T04:24:34;17.00;70.60
6738;DHT22;3406;49.902;8.596;2023-06-24T04:27:01;17.00;70.60
6738;DHT22;3406;49.902;8.596;2023-06-24T04:29:28;17.10;70.70
6738;DHT22;3406;49.902;8.596;2023-06-24T04:31:54;17.10;70.60
6738;DHT22;3406;49.902;8.596;2023-06-24T04:34:21;17.20;70.60
6738;DHT22;3406;49.902;8.596;2023-06-24T04:36:49;17.20;70.50
6738;DHT22;3406;49.902;8.596;2023-06-24T04:39:16;17.20;70.40
6738;DHT22;3406;49.902;8.596;2023-06-24T04:41:42;17.30;70.50
6738;DHT22;3406;49.902;8.596;2023-06-24T04:44:09;17.30;70.50
6738;DHT22;3406;49.902;8.596;2023-06-24T04:46:36;17.40;70.50
6738;DHT22;3406;49.902;8.596;2023-06-24T04:49:02;17.40;70.40
6738;DHT22;3406;49.902;8.596;2023-06-24T04:51:29;17.50;70.40
6738;DHT22;3406;49.902;8.596;2023-06-24T04:53:57;17.60;70.40
6738;DHT22;3406;49.902;8.596;2023-06-24T04:56:25;17.60;70.30
6738;DHT22;3406;49.902;8.596;2023-06-24T04:58:51;17.70;71.10
6738;DHT22;3406;49.902;8.596;2023-06-24T05:01:18;17.80;70.40
6738;DHT22;3406;49.902;8.596;2023-06-24T05:03:44;17.90;70.50
6738;DHT22;3406;49.902;8.596;2023-06-24T05:06:11;18.00;70.50
6738;DHT22;3406;49.902;8.596;2023-06-24T05:08:38;18.10;70.50
6738;DHT22;3406;49.902;8.596;2023-06-24T05:11:05;18.20;70.50
6738;DHT22;3406;49.902;8.596;2023-06-24T05:13:32;18.30;70.50
6738;DHT22;3406;49.902;8.596;2023-06-24T05:15:59;18.40;70.50
6738;DHT22;3406;49.902;8.596;2023-06-24T05:18:25;18.50;70.40
6738;DHT22;3406;49.902;8.596;2023-06-24T05:20:52;18.60;70.30
6738;DHT22;3406;49.902;8.596;2023-06-24T05:23:19;18.60;70.30
6738;DHT22;3406;49.902;8.596;2023-06-24T05:25:45;18.80;70.30
6738;DHT22;3406;49.902;8.596;2023-06-24T05:28:13;18.90;70.10
6738;DHT22;3406;49.902;8.596;2023-06-24T05:30:41;19.10;70.00
6738;DHT22;3406;49.902;8.596;2023-06-24T05:33:07;19.20;69.90
6738;DHT22;3406;49.902;8.596;2023-06-24T05:35:34;19.40;69.80
6738;DHT22;3406;49.902;8.596;2023-06-24T05:38:05;19.50;69.60
6738;DHT22;3406;49.902;8.596;2023-06-24T05:40:32;19.70;69.50
6738;DHT22;3406;49.902;8.596;2023-06-24T05:42:58;19.80;69.30
6738;DHT22;3406;49.902;8.596;2023-06-24T05:45:27;20.00;69.10
6738;DHT22;3406;49.902;8.596;2023-06-24T05:47:54;20.10;69.00
6738;DHT22;3406;49.902;8.596;2023-06-24T05:50:20;20.30;68.90
6738;DHT22;3406;49.902;8.596;2023-06-24T05:52:47;20.50;68.60
6738;DHT22;3406;49.902;8.596;2023-06-24T05:55:14;20.60;68.30
6738;DHT22;3406;49.902;8.596;2023-06-24T05:57:40;20.80;68.10
6738;DHT22;3406;49.902;8.596;2023-06-24T06:00:08;20.90;67.80
6738;DHT22;3406;49.902;8.596;2023-06-24T06:02:36;21.10;67.60
6738;DHT22;3406;49.902;8.596;2023-06-24T06:05:03;21.20;67.30
6738;DHT22;3406;49.902;8.596;2023-06-24T06:07:30;21.30;67.00
6738;DHT22;3406;49.902;8.596;2023-06-24T06:09:56;21.40;66.70
6738;DHT22;3406;49.902;8.596;2023-06-24T06:12:23;21.50;66.60
6738;DHT22;3406;49.902;8.596;2023-06-24T06:14:50;21.60;66.40
6738;DHT22;3406;49.902;8.596;2023-06-24T06:17:16;21.70;66.30
6738;DHT22;3406;49.902;8.596;2023-06-24T06:19:44;21.90;66.10
6738;DHT22;3406;49.902;8.596;2023-06-24T06:22:12;22.00;65.60
6738;DHT22;3406;49.902;8.596;2023-06-24T06:24:39;22.20;65.20
6738;DHT22;3406;49.902;8.596;2023-06-24T06:27:09;22.20;64.90
6738;DHT22;3406;49.902;8.596;2023-06-24T06:29:36;22.30;64.90
6738;DHT22;3406;49.902;8.596;2023-06-24T06:32:04;22.30;64.60
6738;DHT22;3406;49.902;8.596;2023-06-24T06:34:30;22.40;64.60
6738;DHT22;3406;49.902;8.596;2023-06-24T06:36:58;22.50;64.30
6738;DHT22;3406;49.902;8.596;2023-06-24T06:39:26;22.70;64.00
6738;DHT22;3406;49.902;8.596;2023-06-24T06:41:52;22.80;63.50
6738;DHT22;3406;49.902;8.596;2023-06-24T06:44:19;22.80;63.00
6738;DHT22;3406;49.902;8.596;2023-06-24T06:46:46;22.90;62.60
6738;DHT22;3406;49.902;8.596;2023-06-24T06:49:13;22.90;62.00
6738;DHT22;3406;49.902;8.596;2023-06-24T06:51:40;22.80;61.90
6738;DHT22;3406;49.902;8.596;2023-06-24T06:54:08;23.00;62.20
6738;DHT22;3406;49.902;8.596;2023-06-24T06:56:34;23.10;61.90
6738;DHT22;3406;49.902;8.596;2023-06-24T06:59:01;23.10;61.50
6738;DHT22;3406;49.902;8.596;2023-06-24T07:01:28;23.30;61.30
6738;DHT22;3406;49.902;8.596;2023-06-24T07:03:55;23.50;61.00
6738;DHT22;3406;49.902;8.596;2023-06-24T07:06:22;23.60;60.70
6738;DHT22;3406;49.902;8.596;2023-06-24T07:08:49;23.80;60.30
6738;DHT22;3406;49.902;8.596;2023-06-24T07:11:17;23.80;59.70
6738;DHT22;3406;49.902;8.596;2023-06-24T07:13:43;23.90;59.50
6738;DHT22;3406;49.902;8.596;2023-06-24T07:16:11;24.00;59.50
6738;DHT22;3406;49.902;8.596;2023-06-24T07:18:38;24.10;59.20
6738;DHT22;3406;49.902;8.596;2023-06-24T07:21:04;24.20;58.90
6738;DHT22;3406;49.902;8.596;2023-06-24T07:23:31;24.20;58.60
6738;DHT22;3406;49.902;8.596;2023-06-24T07:25:58;24.30;58.40
6738;DHT22;3406;49.902;8.596;2023-06-24T07:28:25;24.40;58.10
6738;DHT22;3406;49.902;8.596;2023-06-24T07:30:52;24.40;57.90
6738;DHT22;3406;49.902;8.596;2023-06-24T07:33:19;24.60;57.90
6738;DHT22;3406;49.902;8.596;2023-06-24T07:35:45;24.70;57.50
6738;DHT22;3406;49.902;8.596;2023-06-24T07:38:12;24.80;57.10
6738;DHT22;3406;49.902;8.596;2023-06-24T07:40:39;24.80;57.20
6738;DHT22;3406;49.902;8.596;2023-06-24T07:43:06;24.90;57.10
6738;DHT22;3406;49.902;8.596;2023-06-24T07:45:34;25.10;56.70
6738;DHT22;3406;49.902;8.596;2023-06-24T07:48:00;25.10;56.50
6738;DHT22;3406;49.902;8.596;2023-06-24T07:50:27;25.30;56.30
6738;DHT22;3406;49.902;8.596;2023-06-24T07:52:53;25.30;56.10
6738;DHT22;3406;49.902;8.596;2023-06-24T07:55:20;25.20;55.50
6738;DHT22;3406;49.902;8.596;2023-06-24T07:57:47;25.00;55.80
6738;DHT22;3406;49.902;8.596;2023-06-24T08:00:14;25.10;55.90
6738;DHT22;3406;49.902;8.596;2023-06-24T08:02:43;25.20;55.70
6738;DHT22;3406;49.902;8.596;2023-06-24T08:05:09;25.30;55.40
6738;DHT22;3406;49.902;8.596;2023-06-24T08:07:37;25.50;55.20
6738;DHT22;3406;49.902;8.596;2023-06-24T08:10:05;25.60;55.00
6738;DHT22;3406;49.902;8.596;2023-06-24T08:12:31;25.80;54.90
6738;DHT22;3406;49.902;8.596;2023-06-24T08:14:58;25.90;54.50
6738;DHT22;3406;49.902;8.596;2023-06-24T08:17:25;25.90;54.30
6738;DHT22;3406;49.902;8.596;2023-06-24T08:19:53;26.00;54.20
6738;DHT22;3406;49.902;8.596;2023-06-24T08:22:19;26.00;54.20
6738;DHT22;3406;49.902;8.596;2023-06-24T08:24:46;26.10;54.00
6738;DHT22;3406;49.902;8.596;2023-06-24T08:27:13;26.10;53.80
6738;DHT22;3406;49.902;8.596;2023-06-24T08:29:39;26.20;54.00
6738;DHT22;3406;49.902;8.596;2023-06-24T08:32:06;26.30;53.80
6738;DHT22;3406;49.902;8.596;2023-06-24T08:34:33;26.30;53.60
6738;DHT22;3406;49.902;8.596;2023-06-24T08:37:01;26.40;53.60
6738;DHT22;3406;49.902;8.596;2023-06-24T08:39:28;26.50;53.40
6738;DHT22;3406;49.902;8.596;2023-06-24T08:41:54;26.50;53.00
6738;DHT22;3406;49.902;8.596;2023-06-24T08:44:21;26.60;52.90
6738;DHT22;3406;49.902;8.596;2023-06-24T08:46:48;26.70;52.20
6738;DHT22;3406;49.902;8.596;2023-06-24T08:49:20;26.50;52.10
6738;DHT22;3406;49.902;8.596;2023-06-24T08:51:56;26.50;52.20
6738;DHT22;3406;49.902;8.596;2023-06-24T08:54:28;26.70;52.10
6738;DHT22;3406;49.902;8.596;2023-06-24T08:56:56;26.80;51.80
6738;DHT22;3406;49.902;8.596;2023-06-24T08:59:25;26.90;51.30
6738;DHT22;3406;49.902;8.596;2023-06-24T09:01:51;27.10;51.20
6738;DHT22;3406;49.902;8.596;2023-06-24T09:04:18;27.20;51.00
6738;DHT22;3406;49.902;8.596;2023-06-24T09:06:44;27.30;50.80
6738;DHT22;3406;49.902;8.596;2023-06-24T09:09:17;27.30;49.80
6738;DHT22;3406;49.902;8.596;2023-06-24T09:11:54;27.10;49.70
6738;DHT22;3406;49.902;8.596;2023-06-24T09:14:21;27.00;49.50
6738;DHT22;3406;49.902;8.596;2023-06-24T09:16:55;26.90;49.30
6738;DHT22;3406;49.902;8.596;2023-06-24T09:19:22;26.80;49.60
6738;DHT22;3406;49.902;8.596;2023-06-24T09:21:49;26.80;49.70
6738;DHT22;3406;49.902;8.596;2023-06-24T09:24:17;26.90;49.60
6738;DHT22;3406;49.902;8.596;2023-06-24T09:26:44;27.00;49.40
6738;DHT22;3406;49.902;8.596;2023-06-24T09:29:12;27.20;49.30
6738;DHT22;3406;49.902;8.596;2023-06-24T09:31:50;27.40;48.90
6738;DHT22;3406;49.902;8.596;2023-06-24T09:34:18;27.60;48.70
6738;DHT22;3406;49.902;8.596;2023-06-24T09:36:51;27.70;48.40
6738;DHT22;3406;49.902;8.596;2023-06-24T09:39:18;27.90;48.30
6738;DHT22;3406;49.902;8.596;2023-06-24T09:41:48;28.10;47.80
6738;DHT22;3406;49.902;8.596;2023-06-24T09:44:17;28.20;48.00
6738;DHT22;3406;49.902;8.596;2023-06-24T09:46:45;28.30;47.70
6738;DHT22;3406;49.902;8.596;2023-06-24T09:49:12;28.30;47.00
6738;DHT22;3406;49.902;8.596;2023-06-24T09:51:39;28.20;47.10
6738;DHT22;3406;49.902;8.596;2023-06-24T09:54:07;28.10;46.80
6738;DHT22;3406;49.902;8.596;2023-06-24T09:56:35;27.90;47.10
6738;DHT22;3406;49.902;8.596;2023-06-24T09:59:04;27.80;47.30
6738;DHT22;3406;49.902;8.596;2023-06-24T10:01:36;27.80;47.30
6738;DHT22;3406;49.902;8.596;2023-06-24T10:04:03;27.90;46.90
6738;DHT22;3406;49.902;8.596;2023-06-24T10:06:31;27.70;46.40
6738;DHT22;3406;49.902;8.596;2023-06-24T10:08:59;27.60;46.60
6738;DHT22;3406;49.902;8.596;2023-06-24T10:11:26;27.50;46.60
6738;DHT22;3406;49.902;8.596;2023-06-24T10:13:53;27.50;46.70
6738;DHT22;3406;49.902;8.596;2023-06-24T10:16:20;27.50;46.60
6738;DHT22;3406;49.902;8.596;2023-06-24T10:18:48;27.70;46.40
6738;DHT22;3406;49.902;8.596;2023-06-24T10:21:15;27.70;46.40
6738;DHT22;3406;49.902;8.596;2023-06-24T10:23:50;27.80;46.20
6738;DHT22;3406;49.902;8.596;2023-06-24T10:26:22;27.90;46.00
6738;DHT22;3406;49.902;8.596;2023-06-24T10:29:09;28.00;46.00
6738;DHT22;3406;49.902;8.596;2023-06-24T10:31:52;28.20;45.90
6738;DHT22;3406;49.902;8.596;2023-06-24T10:34:34;28.40;45.40
6738;DHT22;3406;49.902;8.596;2023-06-24T10:37:08;28.50;44.70
6738;DHT22;3406;49.902;8.596;2023-06-24T10:39:46;28.40;44.70
6738;DHT22;3406;49.902;8.596;2023-06-24T10:42:36;28.40;44.40
6738;DHT22;3406;49.902;8.596;2023-06-24T10:45:14;28.20;44.50
6738;DHT22;3406;49.902;8.596;2023-06-24T10:47:42;28.10;44.50
6738;DHT22;3406;49.902;8.596;2023-06-24T10:50:12;28.20;44.30
6738;DHT22;3406;49.902;8.596;2023-06-24T10:52:40;28.10;44.10
6738;DHT22;3406;49.902;8.596;2023-06-24T10:55:08;28.20;44.10
6738;DHT22;3406;49.902;8.596;2023-06-24T10:57:35;28.40;44.00
6738;DHT22;3406;49.902;8.596;2023-06-24T11:00:04;28.60;43.80
6738;DHT22;3406;49.902;8.596;2023-06-24T11:02:30;28.70;43.60
6738;DHT22;3406;49.902;8.596;2023-06-24T11:04:58;28.90;43.30
6738;DHT22;3406;49.902;8.596;2023-06-24T11:07:28;28.90;43.30
6738;DHT22;3406;49.902;8.596;2023-06-24T11:09:58;28.80;43.30
6738;DHT22;3406;49.902;8.596;2023-06-24T11:12:26;28.60;43.30
6738;DHT22;3406;49.902;8.596;2023-06-24T11:14:56;28.50;43.50
6738;DHT22;3406;49.902;8.596;2023-06-24T11:17:23;28.50;43.30
6738;DHT22;3406;49.902;8.596;2023-06-24T11:19:51;28.70;43.20
6738;DHT22;3406;49.902;8.596;2023-06-24T11:22:18;28.90;42.90
6738;DHT22;3406;49.902;8.596;2023-06-24T11:24:46;28.90;42.40
6738;DHT22;3406;49.902;8.596;2023-06-24T11:27:13;28.90;42.40
6738;DHT22;3406;49.902;8.596;2023-06-24T11:29:39;28.70;42.60
6738;DHT22;3406;49.902;8.596;2023-06-24T11:32:07;28.70;42.70
6738;DHT22;3406;49.902;8.596;2023-06-24T11:34:34;28.60;42.60
6738;DHT22;3406;49.902;8.596;2023-06-24T11:37:09;28.40;42.90
6738;DHT22;3406;49.902;8.596;2023-06-24T11:39:36;28.30;43.00
6738;DHT22;3406;49.902;8.596;2023-06-24T11:42:06;28.40;42.70
6738;DHT22;3406;49.902;8.596;2023-06-24T11:44:33;28.60;42.40
6738;DHT22;3406;49.902;8.596;2023-06-24T11:47:04;28.80;42.00
6738;DHT22;3406;49.902;8.596;2023-06-24T11:49:31;28.90;41.60
6738;DHT22;3406;49.902;8.596;2023-06-24T11:51:58;29.20;41.50
6738;DHT22;3406;49.902;8.596;2023-06-24T11:54:24;29.40;40.90
6738;DHT22;3406;49.902;8.596;2023-06-24T11:56:51;29.60;40.30
6738;DHT22;3406;49.902;8.596;2023-06-24T11:59:21;29.70;39.90
6738;DHT22;3406;49.902;8.596;2023-06-24T12:01:53;29.80;39.70
6738;DHT22;3406;49.902;8.596;2023-06-24T12:04:21;29.90;39.60
6738;DHT22;3406;49.902;8.596;2023-06-24T12:06:48;30.00;39.30
6738;DHT22;3406;49.902;8.596;2023-06-24T12:09:14;30.00;39.10
6738;DHT22;3406;49.902;8.596;2023-06-24T12:11:42;30.10;38.90
6738;DHT22;3406;49.902;8.596;2023-06-24T12:14:09;30.10;38.90
6738;DHT22;3406;49.902;8.596;2023-06-24T12:16:38;30.20;38.90
6738;DHT22;3406;49.902;8.596;2023-06-24T12:19:05;30.20;38.50
6738;DHT22;3406;49.902;8.596;2023-06-24T12:21:32;30.40;38.40
6738;DHT22;3406;49.902;8.596;2023-06-24T12:23:58;30.60;38.40
6738;DHT22;3406;49.902;8.596;2023-06-24T12:26:28;30.80;38.00
6738;DHT22;3406;49.902;8.596;2023-06-24T12:28:55;30.80;37.60
6738;DHT22;3406;49.902;8.596;2023-06-24T12:31:22;30.80;37.70
6738;DHT22;3406;49.902;8.596;2023-06-24T12:33:51;30.90;37.40
6738;DHT22;3406;49.902;8.596;2023-06-24T12:36:18;30.90;37.30
6738;DHT22;3406;49.902;8.596;2023-06-24T12:38:44;30.80;37.20
6738;DHT22;3406;49.902;8.596;2023-06-24T12:41:11;30.70;37.50
6738;DHT22;3406;49.902;8.596;2023-06-24T12:43:38;30.80;37.70
6738;DHT22;3406;49.902;8.596;2023-06-24T12:46:05;30.80;37.70
6738;DHT22;3406;49.902;8.596;2023-06-24T12:48:31;30.90;37.70
6738;DHT22;3406;49.902;8.596;2023-06-24T12:50:59;30.90;37.40
6738;DHT22;3406;49.902;8.596;2023-06-24T12:53:26;30.80;37.50
6738;DHT22;3406;49.902;8.596;2023-06-24T12:55:52;30.80;37.50
6738;DHT22;3406;49.902;8.596;2023-06-24T12:58:23;30.90;37.50
6738;DHT22;3406;49.902;8.596;2023-06-24T13:00:49;30.80;37.50
6738;DHT22;3406;49.902;8.596;2023-06-24T13:03:16;30.60;37.60
6738;DHT22;3406;49.902;8.596;2023-06-24T13:05:43;30.50;37.60
6738;DHT22;3406;49.902;8.596;2023-06-24T13:08:11;30.20;38.00
6738;DHT22;3406;49.902;8.596;2023-06-24T13:10:37;30.20;37.90
6738;DHT22;3406;49.902;8.596;2023-06-24T13:13:04;30.40;38.00
6738;DHT22;3406;49.902;8.596;2023-06-24T13:15:31;30.50;37.90
6738;DHT22;3406;49.902;8.596;2023-06-24T13:17:58;30.40;37.80
6738;DHT22;3406;49.902;8.596;2023-06-24T13:20:24;30.20;37.90
6738;DHT22;3406;49.902;8.596;2023-06-24T13:22:51;30.10;37.90
6738;DHT22;3406;49.902;8.596;2023-06-24T13:25:19;29.70;37.80
6738;DHT22;3406;49.902;8.596;2023-06-24T13:27:46;29.50;38.00
6738;DHT22;3406;49.902;8.596;2023-06-24T13:30:13;29.30;37.90
6738;DHT22;3406;49.902;8.596;2023-06-24T13:32:41;29.30;38.00
6738;DHT22;3406;49.902;8.596;2023-06-24T13:35:08;29.60;37.70
6738;DHT22;3406;49.902;8.596;2023-06-24T13:37:35;29.60;37.20
6738;DHT22;3406;49.902;8.596;2023-06-24T13:40:05;29.80;37.00
6738;DHT22;3406;49.902;8.596;2023-06-24T13:42:33;30.00;36.60
6738;DHT22;3406;49.902;8.596;2023-06-24T13:45:00;30.20;36.50
6738;DHT22;3406;49.902;8.596;2023-06-24T13:47:27;30.30;36.40
6738;DHT22;3406;49.902;8.596;2023-06-24T13:49:54;30.50;36.20
6738;DHT22;3406;49.902;8.596;2023-06-24T13:52:20;30.60;35.90
6738;DHT22;3406;49.902;8.596;2023-06-24T13:54:47;30.80;35.80
6738;DHT22;3406;49.902;8.596;2023-06-24T13:57:14;30.80;35.40
6738;DHT22;3406;49.902;8.596;2023-06-24T13:59:42;30.80;35.50
6738;DHT22;3406;49.902;8.596;2023-06-24T14:02:09;31.10;35.70
6738;DHT22;3406;49.902;8.596;2023-06-24T14:04:37;31.20;35.60
6738;DHT22;3406;49.902;8.596;2023-06-24T14:07:04;31.40;35.50
6738;DHT22;3406;49.902;8.596;2023-06-24T14:09:31;31.70;35.60
6738;DHT22;3406;49.902;8.596;2023-06-24T14:11:58;31.90;35.40
6738;DHT22;3406;49.902;8.596;2023-06-24T14:14:25;32.10;35.20
6738;DHT22;3406;49.902;8.596;2023-06-24T14:16:53;32.10;35.20
6738;DHT22;3406;49.902;8.596;2023-06-24T14:19:19;31.90;35.50
6738;DHT22;3406;49.902;8.596;2023-06-24T14:21:46;31.70;35.70
6738;DHT22;3406;49.902;8.596;2023-06-24T14:24:13;31.60;36.60
6738;DHT22;3406;49.902;8.596;2023-06-24T14:26:39;31.40;36.20
6738;DHT22;3406;49.902;8.596;2023-06-24T14:29:06;31.20;36.30
6738;DHT22;3406;49.902;8.596;2023-06-24T14:31:33;31.00;36.60
6738;DHT22;3406;49.902;8.596;2023-06-24T14:34:01;30.90;36.70
6738;DHT22;3406;49.902;8.596;2023-06-24T14:36:27;30.80;37.00
6738;DHT22;3406;49.902;8.596;2023-06-24T14:38:54;30.80;37.20
6738;DHT22;3406;49.902;8.596;2023-06-24T14:41:21;30.70;37.20
6738;DHT22;3406;49.902;8.596;2023-06-24T14:43:47;30.70;37.30
6738;DHT22;3406;49.902;8.596;2023-06-24T14:46:14;30.80;37.10
6738;DHT22;3406;49.902;8.596;2023-06-24T14:48:40;30.90;36.90
6738;DHT22;3406;49.902;8.596;2023-06-24T14:51:08;31.10;36.80
6738;DHT22;3406;49.902;8.596;2023-06-24T14:53:35;31.30;36.60
6738;DHT22;3406;49.902;8.596;2023-06-24T14:56:02;31.40;36.30
6738;DHT22;3406;49.902;8.596;2023-06-24T14:58:28;31.30;36.10
6738;DHT22;3406;49.902;8.596;2023-06-24T15:00:55;31.20;36.10
6738;DHT22;3406;49.902;8.596;2023-06-24T15:03:22;31.00;36.10
6738;DHT22;3406;49.902;8.596;2023-06-24T15:05:48;30.90;37.00
6738;DHT22;3406;49.902;8.596;2023-06-24T15:08:16;30.90;36.60
6738;DHT22;3406;49.902;8.596;2023-06-24T15:10:43;31.00;36.60
6738;DHT22;3406;49.902;8.596;2023-06-24T15:13:10;31.10;36.50
6738;DHT22;3406;49.902;8.596;2023-06-24T15:15:36;31.30;36.40
6738;DHT22;3406;49.902;8.596;2023-06-24T15:18:03;31.40;36.30
6738;DHT22;3406;49.902;8.596;2023-06-24T15:20:31;31.40;36.10
6738;DHT22;3406;49.902;8.596;2023-06-24T15:22:57;31.60;36.10
6738;DHT22;3406;49.902;8.596;2023-06-24T15:25:25;31.60;36.00
6738;DHT22;3406;49.902;8.596;2023-06-24T15:27:53;31.70;35.90
6738;DHT22;3406;49.902;8.596;2023-06-24T15:30:19;31.80;35.80
6738;DHT22;3406;49.902;8.596;2023-06-24T15:32:46;31.90;35.80
6738;DHT22;3406;49.902;8.596;2023-06-24T15:35:13;32.10;35.70
6738;DHT22;3406;49.902;8.596;2023-06-24T15:37:40;32.20;35.60
6738;DHT22;3406;49.902;8.596;2023-06-24T15:40:08;32.10;35.10
6738;DHT22;3406;49.902;8.596;2023-06-24T15:42:36;32.10;35.30
6738;DHT22;3406;49.902;8.596;2023-06-24T15:45:04;32.10;35.50
6738;DHT22;3406;49.902;8.596;2023-06-24T15:47:30;32.10;35.50
6738;DHT22;3406;49.902;8.596;2023-06-24T15:49:57;32.20;35.30
6738;DHT22;3406;49.902;8.596;2023-06-24T15:52:24;31.90;35.30
6738;DHT22;3406;49.902;8.596;2023-06-24T15:54:50;31.80;35.60
6738;DHT22;3406;49.902;8.596;2023-06-24T15:57:17;31.80;35.60
6738;DHT22;3406;49.902;8.596;2023-06-24T15:59:45;31.90;35.60
6738;DHT22;3406;49.902;8.596;2023-06-24T16:02:12;32.10;35.30
6738;DHT22;3406;49.902;8.596;2023-06-24T16:04:38;32.20;34.80
6738;DHT22;3406;49.902;8.596;2023-06-24T16:07:05;32.10;34.40
6738;DHT22;3406;49.902;8.596;2023-06-24T16:09:32;32.10;34.30